createdAt,value
2019-03-17T00:00:51.805Z,12.10
2019-03-17T00:03:55.729Z,11.93
2019-03-17T00:06:59.558Z,11.33
2019-03-17T00:10:03.529Z,9.50
2019-03-17T00:13:07.463Z,11.00
2019-03-17T00:16:11.376Z,9.10
2019-03-17T00:19:15.198Z,9.47
2019-03-17T00:22:19.054Z,9.40
2019-03-17T00:25:22.938Z,8.77
2019-03-17T00:28:26.814Z,9.00
2019-03-17T00:31:30.689Z,14.57
2019-03-17T00:34:43.556Z,15.17
2019-03-17T00:37:40.203Z,13.87
2019-03-17T00:40:44.017Z,10.47
2019-03-17T00:43:47.959Z,12.17
2019-03-17T00:46:51.793Z,11.17
2019-03-17T00:49:55.677Z,12.33
2019-03-17T00:52:59.625Z,9.70
2019-03-17T00:56:03.518Z,10.23
2019-03-17T00:59:07.347Z,8.60
2019-03-17T01:02:11.293Z,9.17
2019-03-17T01:05:15.121Z,7.53
2019-03-17T01:08:19.038Z,11.80
2019-03-17T01:11:22.913Z,9.30
2019-03-17T01:14:26.786Z,6.97
2019-03-17T01:17:30.661Z,8.10
2019-03-17T01:20:34.523Z,10.07
2019-03-17T01:23:38.393Z,8.20
2019-03-17T01:26:42.217Z,9.07
2019-03-17T01:29:46.090Z,7.80
2019-03-17T01:32:49.941Z,8.30
2019-03-17T01:35:53.884Z,8.57
2019-03-17T01:38:57.757Z,10.73
2019-03-17T01:42:01.592Z,7.90
2019-03-17T01:45:07.157Z,9.77
2019-03-17T01:48:11.034Z,7.27
2019-03-17T01:51:14.964Z,6.97
2019-03-17T01:54:18.774Z,7.77
2019-03-17T01:57:23.437Z,8.53
2019-03-17T02:00:27.286Z,8.77
2019-03-17T02:03:31.175Z,7.63
2019-03-17T02:06:35.084Z,7.90
2019-03-17T02:09:38.943Z,6.73
2019-03-17T02:12:42.848Z,10.27
2019-03-17T02:15:46.678Z,7.60
2019-03-17T02:18:50.573Z,7.00
2019-03-17T02:21:54.419Z,8.70
2019-03-17T02:24:58.273Z,8.37
2019-03-17T02:28:02.096Z,5.73
2019-03-17T02:31:06.000Z,8.50
2019-03-17T02:34:11.753Z,7.70
2019-03-17T02:37:15.391Z,7.43
2019-03-17T02:40:19.279Z,11.07
2019-03-17T02:43:23.126Z,6.50
2019-03-17T02:46:27.011Z,6.30
2019-03-17T02:49:30.860Z,5.80
2019-03-17T02:52:34.748Z,6.67
2019-03-17T02:55:38.613Z,6.80
2019-03-17T02:58:42.453Z,8.00
2019-03-17T03:01:46.353Z,7.50
2019-03-17T03:04:50.196Z,7.63
2019-03-17T03:07:54.039Z,5.93
2019-03-17T03:10:57.922Z,6.97
2019-03-17T03:14:01.854Z,5.10
2019-03-17T03:17:05.725Z,6.27
2019-03-17T03:20:10.281Z,6.73
2019-03-17T03:23:14.265Z,7.13
2019-03-17T03:26:18.093Z,6.03
2019-03-17T03:29:21.973Z,5.67
2019-03-17T03:32:25.942Z,5.60
2019-03-17T03:35:29.868Z,4.93
2019-03-17T03:38:33.746Z,9.37
2019-03-17T03:41:37.600Z,5.13
2019-03-17T03:44:41.475Z,6.77
2019-03-17T03:47:45.334Z,7.73
2019-03-17T03:50:49.227Z,4.83
2019-03-17T03:53:53.086Z,7.23
2019-03-17T03:56:56.981Z,6.07
2019-03-17T04:00:00.820Z,5.73
2019-03-17T04:03:04.707Z,4.90
2019-03-17T04:06:08.547Z,5.13
2019-03-17T04:09:12.404Z,5.63
2019-03-17T04:12:16.274Z,4.60
2019-03-17T04:15:20.155Z,7.50
2019-03-17T04:18:23.999Z,3.87
2019-03-17T04:21:27.860Z,7.50
2019-03-17T04:24:31.735Z,8.07
2019-03-17T04:27:35.611Z,6.23
2019-03-17T04:30:39.478Z,4.80
2019-03-17T04:33:43.592Z,5.97
2019-03-17T04:36:47.434Z,8.00
2019-03-17T04:39:51.320Z,5.87
2019-03-17T04:42:55.168Z,6.83
2019-03-17T04:45:59.044Z,4.70
2019-03-17T04:49:02.942Z,6.87
2019-03-17T04:52:06.809Z,5.80
2019-03-17T04:55:10.635Z,7.93
2019-03-17T04:58:14.528Z,7.20
2019-03-17T05:01:18.352Z,6.53
2019-03-17T05:04:22.221Z,6.30
2019-03-17T05:07:26.084Z,7.20
2019-03-17T05:10:29.972Z,7.10
2019-03-17T05:13:33.830Z,8.00
2019-03-17T05:16:37.754Z,6.03
2019-03-17T05:19:41.681Z,9.13
2019-03-17T05:22:45.596Z,6.20
2019-03-17T05:25:49.534Z,6.00
2019-03-17T05:28:53.433Z,5.90
2019-03-17T05:32:58.445Z,5.07
2019-03-17T05:36:02.297Z,5.37
2019-03-17T05:39:07.419Z,3.63
2019-03-17T05:42:11.273Z,6.03
2019-03-17T05:45:15.123Z,4.90
2019-03-17T05:48:18.942Z,4.33
2019-03-17T05:51:22.797Z,5.43
2019-03-17T05:54:26.666Z,4.20
2019-03-17T05:57:30.509Z,5.27
2019-03-17T06:00:34.374Z,4.33
2019-03-17T06:03:38.268Z,6.33
2019-03-17T06:06:42.105Z,6.43
2019-03-17T06:09:45.969Z,5.13
2019-03-17T06:12:49.819Z,5.37
2019-03-17T06:15:53.713Z,8.00
2019-03-17T06:18:57.614Z,5.00
2019-03-17T06:22:01.463Z,4.30
2019-03-17T06:25:07.630Z,4.40
2019-03-17T06:28:11.456Z,5.67
2019-03-17T06:31:15.370Z,5.27
2019-03-17T06:34:19.237Z,5.27
2019-03-17T06:37:30.996Z,5.53
2019-03-17T06:40:29.168Z,5.83
2019-03-17T06:43:33.059Z,4.07
2019-03-17T06:46:36.887Z,3.80
2019-03-17T06:49:40.765Z,6.30
2019-03-17T06:52:44.614Z,5.43
2019-03-17T06:55:48.487Z,4.70
2019-03-17T06:58:52.358Z,3.97
2019-03-17T07:01:56.183Z,4.55
2019-03-17T07:05:00.169Z,4.03
2019-03-17T07:08:04.238Z,3.15
2019-03-17T07:11:10.886Z,4.72
2019-03-17T07:14:13.898Z,3.30
2019-03-17T07:17:19.307Z,3.67
2019-03-17T07:20:23.343Z,5.15
2019-03-17T07:23:27.279Z,4.50
2019-03-17T07:26:31.153Z,3.97
2019-03-17T07:29:35.118Z,7.53
2019-03-17T07:32:38.953Z,3.40
2019-03-17T07:35:42.783Z,4.30
2019-03-17T07:38:46.815Z,4.03
2019-03-17T07:41:50.653Z,3.98
2019-03-17T07:44:54.549Z,3.92
2019-03-17T07:47:58.410Z,3.22
2019-03-17T07:51:02.249Z,4.25
2019-03-17T07:54:06.179Z,3.20
2019-03-17T07:57:10.094Z,4.90
2019-03-17T08:00:14.704Z,6.47
2019-03-17T08:03:18.585Z,3.20
2019-03-17T08:06:22.480Z,3.23
2019-03-17T08:09:26.309Z,5.10
2019-03-17T08:12:30.190Z,4.33
2019-03-17T08:15:34.032Z,6.83
2019-03-17T08:18:37.924Z,3.62
2019-03-17T08:21:43.267Z,3.37
2019-03-17T08:24:47.554Z,3.33
2019-03-17T08:27:51.424Z,5.90
2019-03-17T08:30:55.603Z,3.37
2019-03-17T08:33:59.508Z,4.50
2019-03-17T08:37:03.358Z,3.43
2019-03-17T08:40:18.088Z,4.23
2019-03-17T08:43:21.915Z,4.10
2019-03-17T08:46:25.778Z,4.23
2019-03-17T08:49:31.386Z,3.90
2019-03-17T08:52:35.719Z,6.20
2019-03-17T08:55:39.615Z,5.60
2019-03-17T08:58:43.494Z,4.23
2019-03-17T09:01:47.794Z,4.10
2019-03-17T09:04:51.866Z,3.67
2019-03-17T09:07:56.915Z,4.30
2019-03-17T09:11:00.924Z,3.73
2019-03-17T09:14:04.902Z,4.77
2019-03-17T09:17:14.144Z,2.93
2019-03-17T09:20:16.960Z,3.17
2019-03-17T09:23:20.799Z,3.07
2019-03-17T09:26:24.689Z,4.13
2019-03-17T09:29:28.523Z,4.83
2019-03-17T09:32:32.462Z,5.33
2019-03-17T09:35:36.259Z,3.37
2019-03-17T09:38:47.327Z,4.70
2019-03-17T09:41:45.676Z,3.73
2019-03-17T09:44:49.531Z,3.12
2019-03-17T09:47:53.429Z,2.50
2019-03-17T09:50:57.288Z,2.55
2019-03-17T09:54:01.188Z,2.10
2019-03-17T09:57:05.013Z,2.30
2019-03-17T10:00:14.017Z,3.25
2019-03-17T10:03:17.834Z,2.65
2019-03-17T10:06:21.742Z,3.25
2019-03-17T10:09:25.654Z,3.22
2019-03-17T10:12:29.510Z,2.45
2019-03-17T10:15:33.433Z,2.12
2019-03-17T10:18:37.281Z,4.25
2019-03-17T10:21:44.095Z,5.92
2019-03-17T10:24:47.933Z,3.08
2019-03-17T10:27:51.794Z,3.58
2019-03-17T10:30:55.721Z,2.42
2019-03-17T10:33:59.616Z,3.12
2019-03-17T10:37:03.490Z,3.35
2019-03-17T10:40:14.970Z,1.92
2019-03-17T10:43:18.994Z,2.62
2019-03-17T10:46:22.847Z,2.65
2019-03-17T10:49:26.808Z,1.70
2019-03-17T10:52:30.764Z,2.77
2019-03-17T10:55:34.664Z,1.77
2019-03-17T10:58:38.584Z,1.72
2019-03-17T11:01:42.409Z,3.10
2019-03-17T11:04:46.294Z,1.98
2019-03-17T11:07:50.166Z,3.10
2019-03-17T11:10:54.072Z,1.85
2019-03-17T11:13:57.926Z,2.75
2019-03-17T11:17:01.792Z,2.12
2019-03-17T11:20:08.898Z,2.62
2019-03-17T11:23:12.850Z,4.37
2019-03-17T11:26:16.830Z,2.58
2019-03-17T11:29:20.751Z,2.42
2019-03-17T11:32:25.077Z,2.62
2019-03-17T11:35:28.974Z,5.03
2019-03-17T11:38:32.832Z,2.43
2019-03-17T11:41:36.707Z,2.85
2019-03-17T11:44:40.596Z,4.10
2019-03-17T11:47:44.604Z,4.93
2019-03-17T11:50:48.532Z,1.87
2019-03-17T11:53:52.425Z,3.20
2019-03-17T11:56:56.270Z,2.22
2019-03-17T12:00:00.364Z,2.52
2019-03-17T12:03:04.502Z,2.45
2019-03-17T12:06:08.542Z,2.40
2019-03-17T12:09:12.402Z,3.57
2019-03-17T12:12:16.242Z,2.35
2019-03-17T12:15:33.166Z,2.50
2019-03-17T12:18:36.988Z,2.00
2019-03-17T12:21:40.887Z,3.20
2019-03-17T12:24:44.767Z,2.27
2019-03-17T12:27:48.623Z,2.70
2019-03-17T12:30:52.467Z,1.67
2019-03-17T12:33:56.436Z,3.27
2019-03-17T12:37:00.269Z,2.67
2019-03-17T12:40:04.273Z,3.20
2019-03-17T12:43:08.125Z,3.35
2019-03-17T12:46:12.025Z,2.08
2019-03-17T12:49:15.854Z,1.90
2019-03-17T12:52:19.793Z,2.22
2019-03-17T12:55:23.674Z,2.00
2019-03-17T12:58:27.520Z,2.75
2019-03-17T13:01:31.392Z,2.87
2019-03-17T13:04:35.287Z,1.72
2019-03-17T13:07:39.119Z,2.12
2019-03-17T13:10:43.029Z,2.58
2019-03-17T13:13:46.873Z,1.97
2019-03-17T13:16:52.091Z,2.45
2019-03-17T13:19:56.039Z,2.58
2019-03-17T13:23:00.153Z,2.12
2019-03-17T13:26:04.442Z,2.10
2019-03-17T13:29:08.313Z,2.12
2019-03-17T13:32:12.190Z,1.77
2019-03-17T13:35:16.414Z,2.05
2019-03-17T13:38:20.293Z,1.82
2019-03-17T13:41:24.169Z,2.47
2019-03-17T13:44:29.623Z,2.47
2019-03-17T13:47:35.868Z,2.25
2019-03-17T13:50:39.712Z,2.55
2019-03-17T13:53:43.601Z,3.33
2019-03-17T13:56:47.477Z,2.37
2019-03-17T13:59:51.355Z,2.17
2019-03-17T14:02:55.202Z,2.20
2019-03-17T14:05:59.096Z,2.60
2019-03-17T14:09:02.971Z,2.05
2019-03-17T14:12:06.822Z,2.65
2019-03-17T14:15:15.381Z,2.72
2019-03-17T14:18:19.214Z,5.37
2019-03-17T14:21:24.575Z,2.03
2019-03-17T14:24:28.629Z,2.50
2019-03-17T14:27:32.528Z,2.70
2019-03-17T14:30:38.088Z,2.40
2019-03-17T14:33:41.966Z,3.72
2019-03-17T14:36:45.815Z,2.58
2019-03-17T14:39:49.688Z,3.53
2019-03-17T14:42:55.492Z,2.03
2019-03-17T14:45:59.183Z,3.33
2019-03-17T14:49:03.075Z,1.97
2019-03-17T14:52:06.994Z,1.80
2019-03-17T14:55:11.735Z,2.83
2019-03-17T14:58:15.615Z,1.90
2019-03-17T15:01:19.459Z,3.00
2019-03-17T15:04:23.465Z,4.47
2019-03-17T15:07:27.359Z,2.23
2019-03-17T15:10:31.203Z,3.93
2019-03-17T15:13:35.134Z,2.73
2019-03-17T15:16:39.708Z,3.90
2019-03-17T15:19:43.595Z,2.63
2019-03-17T15:22:47.476Z,2.60
2019-03-17T15:25:51.364Z,3.17
2019-03-17T15:28:55.199Z,2.67
2019-03-17T15:31:59.098Z,2.67
2019-03-17T15:35:02.963Z,3.23
2019-03-17T15:38:06.949Z,4.77
2019-03-17T15:41:18.414Z,5.10
2019-03-17T15:44:16.342Z,2.77
2019-03-17T15:47:21.413Z,3.53
2019-03-17T15:50:26.759Z,2.77
2019-03-17T15:53:30.678Z,3.00
2019-03-17T15:56:34.500Z,4.20
2019-03-17T15:59:38.486Z,3.67
2019-03-17T16:02:42.467Z,3.60
2019-03-17T16:05:46.359Z,5.37
2019-03-17T16:08:50.253Z,5.23
2019-03-17T16:11:54.216Z,4.63
2019-03-17T16:14:58.207Z,4.17
2019-03-17T16:18:02.156Z,3.23
2019-03-17T16:21:08.896Z,6.17
2019-03-17T16:24:11.696Z,3.47
2019-03-17T16:27:15.812Z,5.93
2019-03-17T16:30:22.105Z,27.27
2019-03-17T16:33:26.000Z,12.93
2019-03-17T16:36:30.185Z,6.47
2019-03-17T16:39:34.160Z,3.77
2019-03-17T16:42:38.003Z,3.37
2019-03-17T16:45:41.880Z,6.23
2019-03-17T16:48:46.061Z,4.40
2019-03-17T16:51:51.361Z,4.43
2019-03-17T16:54:55.256Z,9.00
2019-03-17T16:57:59.216Z,4.47
2019-03-17T17:01:03.127Z,4.33
2019-03-17T17:04:07.093Z,6.10
2019-03-17T17:07:11.151Z,6.20
2019-03-17T17:10:17.992Z,7.83
2019-03-17T17:13:21.880Z,9.57
2019-03-17T17:16:25.892Z,6.77
2019-03-17T17:19:30.105Z,6.63
2019-03-17T17:22:34.005Z,9.23
2019-03-17T17:25:39.545Z,8.80
2019-03-17T17:28:43.383Z,10.73
2019-03-17T17:31:47.402Z,10.73
2019-03-17T17:34:51.266Z,13.10
2019-03-17T17:37:55.209Z,24.20
2019-03-17T17:40:59.235Z,19.87
2019-03-17T17:44:03.147Z,14.23
2019-03-17T17:47:07.370Z,12.57
2019-03-17T17:50:16.422Z,13.80
2019-03-17T17:53:20.423Z,13.30
2019-03-17T17:56:24.280Z,13.73
2019-03-17T17:59:28.173Z,14.00
2019-03-17T18:02:32.076Z,15.57
2019-03-17T18:05:36.167Z,16.03
2019-03-17T18:08:40.166Z,14.50
2019-03-17T18:11:44.189Z,15.97
2019-03-17T18:14:48.191Z,17.27
2019-03-17T18:17:52.066Z,22.33
2019-03-17T18:20:56.006Z,23.73
2019-03-17T18:24:00.074Z,25.43
2019-03-17T18:27:04.076Z,23.97
2019-03-17T18:30:11.019Z,26.43
2019-03-17T18:33:14.995Z,25.70
2019-03-17T18:36:19.023Z,22.90
2019-03-17T18:39:23.018Z,50.17
2019-03-17T18:42:32.985Z,30.47
2019-03-17T18:45:34.438Z,28.50
2019-03-17T18:48:38.424Z,26.77
2019-03-17T18:51:42.431Z,27.57
2019-03-17T18:54:49.419Z,44.87
2019-03-17T18:57:53.383Z,47.77
2019-03-17T19:00:57.352Z,38.13
2019-03-17T19:04:01.395Z,30.73
2019-03-17T19:07:05.492Z,27.53
2019-03-17T19:10:11.992Z,42.97
2019-03-17T19:13:15.931Z,34.50
2019-03-17T19:16:20.025Z,37.57
2019-03-17T19:19:23.998Z,39.07
2019-03-17T19:22:28.082Z,38.27
2019-03-17T19:25:32.208Z,36.57
2019-03-17T19:28:36.202Z,37.07
2019-03-17T19:31:40.170Z,35.77
2019-03-17T19:34:44.206Z,34.33
2019-03-17T19:37:48.317Z,32.57
2019-03-17T19:40:53.811Z,29.30
2019-03-17T19:43:57.837Z,29.40
2019-03-17T19:47:01.871Z,26.13
2019-03-17T19:50:13.857Z,28.90
2019-03-17T19:53:18.102Z,27.77
2019-03-17T19:56:23.584Z,24.20
2019-03-17T19:59:27.538Z,23.30
2019-03-17T20:02:31.514Z,22.70
2019-03-17T20:05:35.516Z,21.57
2019-03-17T20:08:39.517Z,20.47
2019-03-17T20:11:43.591Z,18.23
2019-03-17T20:14:47.526Z,17.10
2019-03-17T20:17:51.433Z,19.23
2019-03-17T20:20:55.376Z,17.63
2019-03-17T20:23:59.272Z,19.70
2019-03-17T20:27:03.262Z,18.97
2019-03-17T20:30:15.211Z,22.93
2019-03-17T20:33:19.105Z,22.70
2019-03-17T20:36:23.032Z,19.73
2019-03-17T20:39:26.853Z,19.43
2019-03-17T20:42:30.776Z,16.30
2019-03-17T20:45:35.957Z,18.47
2019-03-17T20:48:39.850Z,16.97
2019-03-17T20:51:43.813Z,17.27
2019-03-17T20:54:47.690Z,26.93
2019-03-17T20:57:51.661Z,25.97
2019-03-17T21:00:56.445Z,24.00
2019-03-17T21:04:00.492Z,19.93
2019-03-17T21:07:04.351Z,24.33
2019-03-17T21:10:17.154Z,24.87
2019-03-17T21:13:20.983Z,24.33
2019-03-17T21:16:24.997Z,23.93
2019-03-17T21:19:30.066Z,34.07
2019-03-17T21:22:34.031Z,24.00
2019-03-17T21:25:38.006Z,23.13
2019-03-17T21:28:41.848Z,23.20
2019-03-17T21:31:45.736Z,23.67
2019-03-17T21:34:49.584Z,26.90
2019-03-17T21:37:53.508Z,31.57
2019-03-17T21:41:06.945Z,38.30
2019-03-17T21:44:03.210Z,42.23
2019-03-17T21:47:07.039Z,27.17
2019-03-17T21:50:21.594Z,37.07
2019-03-17T21:53:27.060Z,30.80
2019-03-17T21:56:30.961Z,23.87
2019-03-17T21:59:34.878Z,28.30
2019-03-17T22:02:38.737Z,29.57
2019-03-17T22:05:42.666Z,28.23
2019-03-17T22:08:46.562Z,40.37
2019-03-17T22:11:50.475Z,33.27
2019-03-17T22:14:54.375Z,28.27
2019-03-17T22:17:58.203Z,33.07
2019-03-17T22:21:02.081Z,29.93
2019-03-17T22:24:06.000Z,27.93
2019-03-17T22:27:09.922Z,30.87
2019-03-17T22:30:22.920Z,27.83
2019-03-17T22:33:26.820Z,30.53
2019-03-17T22:36:30.728Z,33.67
2019-03-17T22:39:34.605Z,30.00
2019-03-17T22:42:38.484Z,25.27
2019-03-17T22:45:42.401Z,31.00
2019-03-17T22:48:46.303Z,33.60
2019-03-17T22:51:50.143Z,28.90
2019-03-17T22:54:54.048Z,37.23
2019-03-17T22:57:59.166Z,34.43
2019-03-17T23:01:03.704Z,34.23
2019-03-17T23:04:07.541Z,35.57
2019-03-17T23:07:11.444Z,36.23
2019-03-17T23:10:15.340Z,35.63
2019-03-17T23:13:19.287Z,29.87
2019-03-17T23:16:23.121Z,29.73
2019-03-17T23:19:27.039Z,27.80
2019-03-17T23:22:30.970Z,28.80
2019-03-17T23:25:34.889Z,33.53
2019-03-17T23:28:38.738Z,55.47
2019-03-17T23:31:42.650Z,58.03
2019-03-17T23:34:46.493Z,58.03
2019-03-17T23:37:50.406Z,64.70
2019-03-17T23:40:54.264Z,59.67
2019-03-17T23:43:58.180Z,57.30
2019-03-17T23:47:02.076Z,51.17
2019-03-17T23:50:08.423Z,52.30
2019-03-17T23:53:12.310Z,50.20
2019-03-17T23:56:16.199Z,51.43
2019-03-17T23:59:20.069Z,34.83
